Time;durP1;ratioP1;P1;durP2;ratioP2;P2;SDS_P1;SDS_P2;PMS_P1;PMS_P2;Temp;Humidity;BMP_temperature;BMP_pressure;BME280_temperature;BME280_humidity;BME280_pressure;Samples;Min_cycle;Max_cycle;Signal;HPM_P1;HPM_P2
2023/07/24 00:02:06;;;;;;;2.92;2.63;;;20.70;57.90;;;;;;5099587;28;20175;-85
2023/07/24 00:04:32;;;;;;;2.95;2.65;;;20.70;57.90;;;;;;5116144;28;20644;-84
2023/07/24 00:06:58;;;;;;;2.70;2.50;;;20.70;58.00;;;;;;5098903;28;20160;-86
2023/07/24 00:09:24;;;;;;;2.83;2.50;;;20.70;58.00;;;;;;5098923;28;20164;-83
2023/07/24 00:11:50;;;;;;;2.92;2.63;;;20.70;58.00;;;;;;5115985;28;20148;-85
2023/07/24 00:14:16;;;;;;;3.05;2.75;;;20.60;58.00;;;;;;5116447;28;20267;-85
2023/07/24 00:16:42;;;;;;;2.67;2.47;;;20.70;58.00;;;;;;5115805;28;20251;-82
2023/07/24 00:19:12;;;;;;;3.08;2.67;;;20.70;58.00;;;;;;5116839;28;20271;-86
2023/07/24 00:21:38;;;;;;;2.70;2.42;;;20.70;58.00;;;;;;5098323;28;20185;-85
2023/07/24 00:24:04;;;;;;;2.60;2.40;;;20.70;58.00;;;;;;5116952;28;20153;-88
2023/07/24 00:26:30;;;;;;;2.88;2.55;;;20.80;58.00;;;;;;5116899;28;20195;-85
2023/07/24 00:28:56;;;;;;;3.00;2.70;;;20.70;58.00;;;;;;5116067;28;20172;-82
2023/07/24 00:31:22;;;;;;;3.08;2.78;;;20.70;58.00;;;;;;5116744;28;20279;-83
2023/07/24 00:33:47;;;;;;;2.50;2.30;;;20.70;58.00;;;;;;5116672;28;20156;-85
2023/07/24 00:36:13;;;;;;;2.70;2.50;;;20.70;58.00;;;;;;5098322;28;20157;-86
2023/07/24 00:38:39;;;;;;;2.75;2.50;;;20.70;58.00;;;;;;5116619;28;20240;-89
2023/07/24 00:41:05;;;;;;;3.00;2.70;;;20.70;58.00;;;;;;5115697;28;20176;-87
2023/07/24 00:43:31;;;;;;;2.85;2.50;;;20.70;58.10;;;;;;5115322;28;20513;-88
2023/07/24 00:45:57;;;;;;;2.75;2.53;;;20.70;58.00;;;;;;5115235;28;20164;-84
2023/07/24 00:48:23;;;;;;;2.50;2.30;;;20.70;58.00;;;;;;5115431;28;20194;-83
2023/07/24 00:50:49;;;;;;;3.00;2.70;;;20.60;58.00;;;;;;5116339;28;20606;-85
2023/07/24 00:53:15;;;;;;;2.92;2.65;;;20.70;58.10;;;;;;5115167;28;20222;-86
2023/07/24 00:55:41;;;;;;;3.00;2.65;;;20.70;58.10;;;;;;5116302;28;20144;-83
2023/07/24 00:58:07;;;;;;;2.63;2.42;;;20.70;58.10;;;;;;5116307;28;20184;-87
2023/07/24 01:00:33;;;;;;;2.80;2.58;;;20.70;58.10;;;;;;5098001;28;20164;-86
2023/07/24 01:02:59;;;;;;;2.80;2.60;;;20.70;58.10;;;;;;5116065;28;20168;-84
2023/07/24 01:05:25;;;;;;;3.00;2.70;;;20.70;58.10;;;;;;5114183;28;20326;-85
2023/07/24 01:07:52;;;;;;;2.60;2.40;;;20.70;58.10;;;;;;5115392;28;20247;-83
2023/07/24 01:10:18;;;;;;;3.00;2.70;;;20.70;58.10;;;;;;5116311;28;20155;-87
2023/07/24 01:13:15;;;;;;;2.70;2.50;;;20.70;58.10;;;;;;5114858;28;20171;-85
2023/07/24 01:15:45;;;;;;;2.80;2.40;;;20.70;58.10;;;;;;5114698;28;20197;-88
2023/07/24 01:18:11;;;;;;;2.97;2.58;;;20.60;58.10;;;;;;5114533;28;20279;-83
2023/07/24 01:20:39;;;;;;;2.83;2.53;;;20.70;58.10;;;;;;5114686;28;20144;-86
2023/07/24 01:23:22;;;;;;;2.85;2.60;;;20.70;58.10;;;;;;5115272;28;20178;-85
2023/07/24 01:25:57;;;;;;;2.90;2.60;;;20.70;58.10;;;;;;5114909;27;20209;-87
2023/07/24 01:28:23;;;;;;;2.80;2.47;;;20.60;58.10;;;;;;5114813;28;20151;-87
2023/07/24 01:30:52;;;;;;;2.70;2.50;;;20.60;58.80;;;;;;5114489;28;20495;-83
2023/07/24 01:33:19;;;;;;;2.90;2.60;;;20.60;58.20;;;;;;5096703;28;20176;-83
2023/07/24 01:35:45;;;;;;;3.20;2.70;;;20.60;58.20;;;;;;5114381;28;20540;-81
2023/07/24 01:38:12;;;;;;;2.75;2.55;;;20.60;58.20;;;;;;5114442;28;20240;-83
2023/07/24 01:40:40;;;;;;;2.60;2.40;;;20.60;58.20;;;;;;5097537;28;20526;-85
2023/07/24 01:43:06;;;;;;;2.92;2.63;;;20.60;58.20;;;;;;5097190;28;20626;-86
2023/07/24 01:45:32;;;;;;;2.60;2.40;;;20.70;58.20;;;;;;5115494;28;20162;-86
2023/07/24 01:47:58;;;;;;;2.85;2.55;;;20.60;58.20;;;;;;5113998;28;20588;-88
2023/07/24 01:50:24;;;;;;;2.90;2.60;;;20.60;58.20;;;;;;5114007;28;20164;-84
2023/07/24 01:52:50;;;;;;;2.70;2.50;;;20.60;58.20;;;;;;5113783;28;20290;-85
2023/07/24 01:55:16;;;;;;;3.15;2.78;;;20.70;58.20;;;;;;5115132;28;20184;-87
2023/07/24 01:57:42;;;;;;;3.15;2.85;;;20.60;58.30;;;;;;5113825;28;20187;-87
2023/07/24 02:00:08;;;;;;;2.65;2.45;;;20.60;58.20;;;;;;5114995;28;20221;-85
2023/07/24 02:02:34;;;;;;;2.60;2.40;;;20.60;58.20;;;;;;5114971;28;20560;-82
2023/07/24 02:05:00;;;;;;;2.80;2.60;;;20.70;58.30;;;;;;5115249;28;20599;-85
2023/07/24 02:07:26;;;;;;;2.72;2.50;;;20.60;58.20;;;;;;5113669;28;20175;-86
2023/07/24 02:09:52;;;;;;;2.78;2.58;;;20.60;58.30;;;;;;5115136;28;20607;-84
2023/07/24 02:12:18;;;;;;;2.80;2.60;;;20.60;58.30;;;;;;5113584;28;20152;-89
2023/07/24 02:14:44;;;;;;;2.75;2.50;;;20.60;58.30;;;;;;5114774;28;20156;-83
2023/07/24 02:17:10;;;;;;;2.65;2.45;;;20.60;58.30;;;;;;5096403;28;20164;-86
2023/07/24 02:19:36;;;;;;;3.00;2.70;;;20.60;58.30;;;;;;5113587;28;20203;-87
2023/07/24 02:22:02;;;;;;;3.00;2.70;;;20.60;58.30;;;;;;5113446;28;20168;-85
2023/07/24 02:24:27;;;;;;;2.95;2.65;;;20.60;58.30;;;;;;5114586;28;20231;-83
2023/07/24 02:26:53;;;;;;;2.67;2.47;;;20.50;58.30;;;;;;5114554;28;20152;-84
2023/07/24 02:29:23;;;;;;;2.78;2.50;;;20.60;58.30;;;;;;5114551;28;20156;-83
2023/07/24 02:31:50;;;;;;;2.95;2.70;;;20.60;58.30;;;;;;5113067;28;20180;-82
2023/07/24 02:34:16;;;;;;;3.10;2.80;;;20.70;58.30;;;;;;5113225;28;20209;-86
2023/07/24 02:36:42;;;;;;;2.90;2.70;;;20.60;58.30;;;;;;5113283;28;20188;-83
2023/07/24 02:39:08;;;;;;;2.90;2.60;;;20.60;58.30;;;;;;5114317;28;20608;-84
2023/07/24 02:41:34;;;;;;;3.00;2.70;;;20.60;58.30;;;;;;5113059;28;20179;-86
2023/07/24 02:44:00;;;;;;;2.70;2.50;;;20.60;58.30;;;;;;5113003;28;20161;-86
2023/07/24 02:46:25;;;;;;;2.55;2.35;;;20.60;58.30;;;;;;5112981;28;20242;-86
2023/07/24 02:48:52;;;;;;;2.60;2.40;;;20.60;58.30;;;;;;5113330;28;20231;-84
2023/07/24 02:51:18;;;;;;;2.90;2.65;;;20.60;58.40;;;;;;5115529;27;20148;-86
2023/07/24 02:53:44;;;;;;;2.60;2.40;;;20.50;58.30;;;;;;5099509;27;20678;-85
2023/07/24 02:56:10;;;;;;;3.15;2.85;;;20.50;58.30;;;;;;5134656;27;20155;-88
2023/07/24 02:58:36;;;;;;;3.05;2.75;;;20.60;58.40;;;;;;5099100;27;20668;-86
2023/07/24 03:01:06;;;;;;;3.10;2.80;;;20.50;58.30;;;;;;5099081;27;20207;-85
2023/07/24 03:03:32;;;;;;;3.03;2.63;;;20.60;58.40;;;;;;5116671;27;20152;-85
2023/07/24 03:05:58;;;;;;;3.00;2.70;;;20.60;58.40;;;;;;5116154;27;20586;-82
2023/07/24 03:08:24;;;;;;;2.72;2.40;;;20.60;58.40;;;;;;5116112;28;20148;-85
2023/07/24 03:10:50;;;;;;;3.13;2.83;;;20.50;58.40;;;;;;5116112;27;20624;-83
2023/07/24 03:13:16;;;;;;;2.70;2.50;;;20.50;58.40;;;;;;5116001;27;20163;-85
2023/07/24 03:15:42;;;;;;;2.80;2.60;;;20.50;58.40;;;;;;5099024;27;20723;-86
2023/07/24 03:18:08;;;;;;;3.25;2.95;;;20.50;58.40;;;;;;5098875;28;20631;-84
2023/07/24 03:20:34;;;;;;;2.50;2.30;;;20.50;58.40;;;;;;5115975;28;20158;-85
2023/07/24 03:23:00;;;;;;;2.88;2.58;;;20.50;58.40;;;;;;5134453;28;20147;-88
2023/07/24 03:25:26;;;;;;;3.00;2.70;;;20.50;58.40;;;;;;5134356;28;20160;-86
2023/07/24 03:27:52;;;;;;;3.10;2.80;;;20.50;58.40;;;;;;5116899;27;20204;-85
2023/07/24 03:30:18;;;;;;;2.90;2.45;;;20.60;58.40;;;;;;5103059;27;20216;-84
2023/07/24 03:32:44;;;;;;;2.88;2.58;;;20.60;58.40;;;;;;5138933;27;20159;-87
2023/07/24 03:35:10;;;;;;;2.55;2.35;;;20.60;58.40;;;;;;5102979;27;20171;-86
2023/07/24 03:37:36;;;;;;;2.83;2.50;;;20.60;58.40;;;;;;5120347;27;20155;-86
2023/07/24 03:40:02;;;;;;;2.92;2.60;;;20.60;58.40;;;;;;5138320;27;20158;-85
2023/07/24 03:42:28;;;;;;;2.65;2.45;;;20.60;58.40;;;;;;5138643;27;20159;-86
2023/07/24 03:44:55;;;;;;;2.83;2.60;;;20.60;58.40;;;;;;5119981;27;20677;-86
2023/07/24 03:47:20;;;;;;;2.60;2.40;;;20.60;58.30;;;;;;5102762;27;20159;-83
2023/07/24 03:49:50;;;;;;;2.50;2.30;;;20.60;58.30;;;;;;5119739;27;20166;-83
2023/07/24 03:52:16;;;;;;;2.58;2.38;;;20.60;58.30;;;;;;5037961;28;20228;-85
2023/07/24 03:54:42;;;;;;;2.70;2.50;;;20.60;58.20;;;;;;5096014;28;20175;-84
2023/07/24 03:57:08;;;;;;;3.10;2.80;;;20.60;58.20;;;;;;5095855;28;20157;-83
2023/07/24 03:59:34;;;;;;;2.67;2.38;;;20.70;58.30;;;;;;5095936;28;20211;-83
2023/07/24 04:02:00;;;;;;;2.58;2.38;;;20.70;58.20;;;;;;5079318;28;20214;-88
2023/07/24 04:04:26;;;;;;;2.90;2.50;;;20.70;58.10;;;;;;5079063;28;20209;-85
2023/07/24 04:06:52;;;;;;;2.85;2.65;;;20.70;58.20;;;;;;5097132;28;20627;-84
2023/07/24 04:09:18;;;;;;;2.80;2.55;;;20.70;58.10;;;;;;5096728;28;20243;-82
2023/07/24 04:11:44;;;;;;;2.65;2.45;;;20.70;58.10;;;;;;5096736;28;20157;-85
2023/07/24 04:14:10;;;;;;;2.67;2.47;;;20.70;58.00;;;;;;5096877;28;20154;-85
2023/07/24 04:16:36;;;;;;;2.65;2.45;;;20.70;58.00;;;;;;5095432;28;20587;-87
2023/07/24 04:19:02;;;;;;;2.30;2.10;;;20.70;58.00;;;;;;5096619;28;20184;-85
2023/07/24 04:21:28;;;;;;;3.13;2.83;;;20.70;58.00;;;;;;5095410;28;20177;-86
2023/07/24 04:23:54;;;;;;;2.65;2.45;;;20.70;58.00;;;;;;5095341;28;20164;-82
2023/07/24 04:26:20;;;;;;;2.53;2.33;;;20.70;57.90;;;;;;5096725;28;20235;-84
2023/07/24 04:28:46;;;;;;;2.85;2.65;;;20.80;58.50;;;;;;5095203;28;20200;-84
2023/07/24 04:31:12;;;;;;;2.72;2.42;;;20.80;57.80;;;;;;5078142;28;20157;-84
2023/07/24 04:33:38;;;;;;;2.63;2.33;;;20.80;57.80;;;;;;5078642;28;20301;-84
2023/07/24 04:36:04;;;;;;;2.80;2.53;;;20.80;57.80;;;;;;5096294;28;20145;-85
2023/07/24 04:38:30;;;;;;;2.63;2.42;;;20.80;57.80;;;;;;5096101;28;20189;-86
2023/07/24 04:40:56;;;;;;;2.75;2.50;;;20.80;57.80;;;;;;5077024;28;20630;-84
2023/07/24 04:43:22;;;;;;;2.63;2.42;;;20.80;57.80;;;;;;5096222;28;20159;-85
2023/07/24 04:45:48;;;;;;;2.67;2.47;;;20.80;57.90;;;;;;5078098;28;20631;-85
2023/07/24 04:48:14;;;;;;;2.60;2.30;;;20.80;57.90;;;;;;5094964;28;20157;-85
2023/07/24 04:50:40;;;;;;;2.72;2.53;;;20.80;57.90;;;;;;5094779;28;20158;-84
2023/07/24 04:53:06;;;;;;;2.70;2.50;;;20.80;58.00;;;;;;5131079;27;20230;-86
2023/07/24 04:55:36;;;;;;;2.85;2.55;;;20.70;58.00;;;;;;5136913;27;20152;-84
2023/07/24 04:58:02;;;;;;;2.63;2.42;;;20.70;58.10;;;;;;5067377;27;20310;-85
2023/07/24 05:00:27;;;;;;;2.90;2.60;;;20.70;58.00;;;;;;5136798;27;20234;-84
2023/07/24 05:02:53;;;;;;;2.60;2.40;;;20.80;58.00;;;;;;5118409;27;20163;-85
2023/07/24 05:05:19;;;;;;;2.65;2.42;;;20.80;57.90;;;;;;5136948;27;20606;-82
2023/07/24 05:07:45;;;;;;;3.03;2.72;;;20.80;57.80;;;;;;5136670;27;20163;-83
2023/07/24 05:10:13;;;;;;;2.72;2.53;;;20.80;57.90;;;;;;5136802;27;20147;-83
2023/07/24 05:12:42;;;;;;;2.75;2.55;;;20.80;57.80;;;;;;5101571;27;20175;-87
2023/07/24 05:15:08;;;;;;;2.72;2.53;;;20.70;57.90;;;;;;5101619;27;20179;-85
2023/07/24 05:17:34;;;;;;;2.80;2.60;;;20.80;57.90;;;;;;5117942;27;20155;-86
2023/07/24 05:20:00;;;;;;;2.55;2.25;;;20.80;58.00;;;;;;5118358;27;20514;-84
2023/07/24 05:22:26;;;;;;;3.45;2.63;;;20.80;57.90;;;;;;5136328;27;20645;-84
2023/07/24 05:24:52;;;;;;;2.90;2.60;;;20.80;58.00;;;;;;5136639;27;20152;-84
2023/07/24 05:27:18;;;;;;;2.40;2.20;;;20.70;58.00;;;;;;5101060;27;20187;-86
2023/07/24 05:29:44;;;;;;;2.80;2.60;;;20.70;58.00;;;;;;5117766;27;20666;-86
2023/07/24 05:32:10;;;;;;;2.60;2.40;;;20.60;58.00;;;;;;5101059;27;20196;-87
2023/07/24 05:34:36;;;;;;;2.63;2.40;;;20.70;58.10;;;;;;5117879;27;20256;-85
2023/07/24 05:37:02;;;;;;;2.58;2.35;;;20.60;58.20;;;;;;5100951;27;20623;-83
2023/07/24 05:39:29;;;;;;;3.45;2.47;;;20.70;58.30;;;;;;5117333;27;20586;-84
2023/07/24 05:41:54;;;;;;;2.42;2.22;;;20.70;58.40;;;;;;5100798;27;20167;-85
2023/07/24 05:44:20;;;;;;;3.00;2.53;;;20.70;58.80;;;;;;5100654;27;20517;-84
2023/07/24 05:46:46;;;;;;;2.70;2.50;;;20.70;59.40;;;;;;5083602;27;20621;-85
2023/07/24 05:49:12;;;;;;;2.67;2.47;;;20.70;59.60;;;;;;5135691;27;20498;-85
2023/07/24 05:51:37;;;;;;;2.78;2.58;;;20.70;59.40;;;;;;5113583;28;20216;-86
2023/07/24 05:54:03;;;;;;;2.90;2.42;;;20.70;60.20;;;;;;5115085;28;20641;-85
2023/07/24 05:56:28;;;;;;;2.90;2.60;;;20.70;60.70;;;;;;5114132;28;20157;-87
2023/07/24 05:58:54;;;;;;;2.53;2.33;;;20.60;60.80;;;;;;5097101;28;20604;-84
2023/07/24 06:01:20;;;;;;;2.67;2.38;;;20.60;61.00;;;;;;5113720;28;20144;-84
2023/07/24 06:03:45;;;;;;;2.40;2.20;;;20.50;61.70;;;;;;5113971;28;20201;-85
2023/07/24 06:06:11;;;;;;;2.45;2.25;;;20.50;61.80;;;;;;5114852;28;20156;-86
2023/07/24 06:08:37;;;;;;;2.45;2.13;;;20.50;62.30;;;;;;5114737;28;20585;-86
2023/07/24 06:11:02;;;;;;;2.83;2.55;;;20.50;62.90;;;;;;5114863;28;20637;-85
2023/07/24 06:13:28;;;;;;;2.50;2.30;;;20.50;62.70;;;;;;5113554;28;20622;-83
2023/07/24 06:15:54;;;;;;;2.50;2.30;;;20.60;62.70;;;;;;5113499;28;20284;-86
2023/07/24 06:18:19;;;;;;;2.50;2.30;;;20.50;62.90;;;;;;5113445;28;20195;-83
2023/07/24 06:20:45;;;;;;;2.40;2.15;;;20.50;62.60;;;;;;5096374;28;20167;-83
2023/07/24 06:23:11;;;;;;;2.90;2.60;;;20.60;63.00;;;;;;5113591;28;20148;-85
2023/07/24 06:25:36;;;;;;;2.72;2.50;;;20.60;63.00;;;;;;5096357;28;20166;-85
2023/07/24 06:28:02;;;;;;;2.67;2.45;;;20.60;63.40;;;;;;5096562;28;20156;-83
2023/07/24 06:30:28;;;;;;;2.58;2.38;;;20.70;63.50;;;;;;5096933;28;20160;-83
2023/07/24 06:32:54;;;;;;;2.40;2.20;;;20.70;63.50;;;;;;5113144;28;20583;-86
2023/07/24 06:35:20;;;;;;;2.70;2.40;;;20.80;63.30;;;;;;5114018;28;20664;-85
2023/07/24 06:37:46;;;;;;;2.38;2.17;;;20.70;63.30;;;;;;5096016;28;20191;-86
2023/07/24 06:40:12;;;;;;;2.33;2.13;;;20.70;63.30;;;;;;5113088;28;20642;-85
2023/07/24 06:42:38;;;;;;;2.95;2.65;;;20.70;63.60;;;;;;5113588;28;20156;-84
2023/07/24 06:45:04;;;;;;;2.83;2.53;;;20.60;63.00;;;;;;5113127;27;20155;-86
2023/07/24 06:47:30;;;;;;;2.63;2.42;;;20.60;63.80;;;;;;5114198;28;20186;-84
2023/07/24 06:49:57;;;;;;;2.70;2.50;;;20.60;63.20;;;;;;5096580;28;20184;-84
2023/07/24 06:52:23;;;;;;;2.75;2.50;;;20.70;63.30;;;;;;5096047;28;20222;-84
2023/07/24 06:54:49;;;;;;;2.45;2.22;;;20.60;63.40;;;;;;5096606;28;20266;-83
2023/07/24 06:57:15;;;;;;;2.72;2.35;;;20.60;63.60;;;;;;5114067;28;20623;-84
2023/07/24 06:59:40;;;;;;;2.78;2.50;;;20.60;63.50;;;;;;5113039;28;20271;-85
2023/07/24 07:02:06;;;;;;;2.78;2.50;;;20.50;63.90;;;;;;5112406;28;20174;-84
2023/07/24 07:04:33;;;;;;;2.78;2.53;;;20.60;64.30;;;;;;5112546;28;20159;-86
2023/07/24 07:06:58;;;;;;;2.65;2.35;;;20.60;64.60;;;;;;5112676;28;20163;-82
2023/07/24 07:09:25;;;;;;;2.42;2.22;;;20.70;63.80;;;;;;5113195;28;20712;-86
2023/07/24 07:11:50;;;;;;;2.53;2.25;;;20.60;64.10;;;;;;5112701;28;20152;-84
2023/07/24 07:14:16;;;;;;;2.70;2.50;;;20.60;64.00;;;;;;5113028;28;20171;-84
2023/07/24 07:16:42;;;;;;;2.85;2.38;;;20.60;64.40;;;;;;5112616;28;20515;-85
2023/07/24 07:19:09;;;;;;;2.40;2.20;;;20.60;64.00;;;;;;5112535;28;20233;-86
2023/07/24 07:21:35;;;;;;;2.35;2.13;;;20.60;64.30;;;;;;5095690;28;20156;-86
2023/07/24 07:24:00;;;;;;;3.00;2.70;;;20.70;64.10;;;;;;5113001;28;20217;-86
2023/07/24 07:26:26;;;;;;;2.40;2.20;;;20.70;64.30;;;;;;5095511;28;20168;-86
2023/07/24 07:28:52;;;;;;;2.42;2.22;;;20.80;64.30;;;;;;5112498;28;20171;-83
2023/07/24 07:31:17;;;;;;;2.50;2.30;;;20.80;64.10;;;;;;5095430;28;20164;-86
2023/07/24 07:33:43;;;;;;;2.30;2.10;;;20.80;64.00;;;;;;5095749;28;20168;-85
2023/07/24 07:36:09;;;;;;;2.42;2.22;;;20.80;64.10;;;;;;5112391;28;20618;-83
2023/07/24 07:38:35;;;;;;;2.50;2.30;;;20.80;64.10;;;;;;5095277;28;20529;-84
2023/07/24 07:41:04;;;;;;;2.35;2.15;;;20.80;64.30;;;;;;5095695;28;20221;-84
2023/07/24 07:43:29;;;;;;;2.35;2.15;;;20.80;64.20;;;;;;5112668;28;20185;-86
2023/07/24 07:45:56;;;;;;;2.80;2.35;;;20.70;64.20;;;;;;5095347;28;20191;-84
2023/07/24 07:48:22;;;;;;;2.95;2.58;;;20.80;64.20;;;;;;5095486;28;20223;-86
2023/07/24 07:50:55;;;;;;;2.78;2.47;;;20.70;64.30;;;;;;5095590;28;20637;-85
2023/07/24 07:53:20;;;;;;;2.55;2.30;;;20.80;64.30;;;;;;5091761;28;20216;-84
2023/07/24 07:55:46;;;;;;;2.78;2.15;;;20.80;64.40;;;;;;5091860;28;20180;-86
2023/07/24 07:58:12;;;;;;;2.50;2.20;;;20.80;64.40;;;;;;5091761;28;20196;-85
2023/07/24 08:00:39;;;;;;;2.92;2.35;;;20.80;64.70;;;;;;5108742;28;20153;-86
2023/07/24 08:03:05;;;;;;;2.55;2.35;;;20.70;64.80;;;;;;5091814;28;20618;-84
2023/07/24 08:05:32;;;;;;;2.42;2.22;;;20.70;64.80;;;;;;5091787;28;20193;-84
2023/07/24 08:07:57;;;;;;;2.55;2.35;;;20.70;64.80;;;;;;5075891;28;20168;-87
2023/07/24 08:10:24;;;;;;;2.42;2.20;;;20.70;64.80;;;;;;5092601;28;20153;-85
2023/07/24 08:12:49;;;;;;;2.63;2.42;;;20.80;64.80;;;;;;5093946;28;20526;-87
2023/07/24 08:15:15;;;;;;;2.45;2.25;;;20.80;64.30;;;;;;5095662;28;20164;-86
2023/07/24 08:17:41;;;;;;;2.70;2.28;;;20.80;64.50;;;;;;5078621;28;20183;-83
2023/07/24 08:20:07;;;;;;;2.45;2.25;;;20.80;64.60;;;;;;5097100;28;20187;-83
2023/07/24 08:22:32;;;;;;;2.35;2.15;;;20.70;64.50;;;;;;5096666;28;20670;-85
2023/07/24 08:24:58;;;;;;;2.30;2.10;;;20.80;64.60;;;;;;5095310;28;20235;-84
2023/07/24 08:27:24;;;;;;;2.92;2.20;;;20.80;64.40;;;;;;5105464;28;20160;-85
2023/07/24 08:29:52;;;;;;;2.65;2.40;;;20.90;64.20;;;;;;5081756;28;20160;-83
2023/07/24 08:32:18;;;;;;;2.67;2.30;;;20.90;64.10;;;;;;5099059;28;20159;-83
2023/07/24 08:34:44;;;;;;;2.33;2.13;;;20.90;64.20;;;;;;5098772;28;20626;-85
2023/07/24 08:37:11;;;;;;;2.20;2.00;;;20.80;64.20;;;;;;5111098;28;20153;-85
2023/07/24 08:39:36;;;;;;;2.47;2.15;;;20.90;64.20;;;;;;5100083;28;20204;-83
2023/07/24 08:42:08;;;;;;;2.30;2.10;;;20.80;64.10;;;;;;5116600;28;20515;-85
2023/07/24 08:44:34;;;;;;;2.47;2.28;;;20.90;64.10;;;;;;5115263;28;20159;-86
2023/07/24 08:47:00;;;;;;;3.58;2.40;;;20.90;64.10;;;;;;5116484;28;20164;-87
2023/07/24 08:49:25;;;;;;;2.58;2.35;;;20.90;64.10;;;;;;5077927;28;20173;-86
2023/07/24 08:51:51;;;;;;;2.28;2.00;;;20.90;64.10;;;;;;5100496;28;20577;-86
2023/07/24 08:54:17;;;;;;;2.65;2.42;;;20.90;63.90;;;;;;5095554;28;20156;-86
2023/07/24 08:56:47;;;;;;;2.58;2.22;;;20.90;63.90;;;;;;5094706;28;20180;-85
2023/07/24 08:59:12;;;;;;;2.53;2.15;;;20.90;63.70;;;;;;5095963;28;20193;-87
2023/07/24 09:01:38;;;;;;;2.50;2.30;;;21.00;63.60;;;;;;5111614;27;20201;-84
2023/07/24 09:04:04;;;;;;;2.38;2.17;;;21.00;63.70;;;;;;5128727;27;20240;-84
2023/07/24 09:06:30;;;;;;;2.80;2.22;;;21.00;63.60;;;;;;5093464;28;20266;-85
2023/07/24 09:08:56;;;;;;;2.40;2.20;;;21.00;63.50;;;;;;5092734;28;20153;-87
2023/07/24 09:11:26;;;;;;;2.40;2.20;;;21.10;63.50;;;;;;5092770;28;20153;-85
2023/07/24 09:13:52;;;;;;;2.33;2.10;;;21.10;63.30;;;;;;5091063;28;20179;-84
2023/07/24 09:16:23;;;;;;;2.30;2.10;;;21.00;63.40;;;;;;5093348;28;20247;-84
2023/07/24 09:18:51;;;;;;;2.63;2.20;;;21.10;63.20;;;;;;5093392;28;20670;-83
2023/07/24 09:21:27;;;;;;;2.55;2.30;;;21.10;63.00;;;;;;5094828;28;20149;-85
2023/07/24 09:23:53;;;;;;;2.35;2.15;;;21.00;63.30;;;;;;5128207;27;20164;-85
2023/07/24 09:26:19;;;;;;;2.75;2.22;;;21.00;63.20;;;;;;5094522;28;20207;-84
2023/07/24 09:28:52;;;;;;;2.20;2.00;;;21.00;63.00;;;;;;5095169;28;20635;-87
2023/07/24 09:31:18;;;;;;;2.53;2.10;;;21.10;62.90;;;;;;5111651;28;20169;-86
2023/07/24 09:33:44;;;;;;;2.10;1.90;;;21.10;62.70;;;;;;5077090;28;20217;-84
2023/07/24 09:36:10;;;;;;;1.75;1.65;;;21.10;62.40;;;;;;5093799;28;20572;-83
2023/07/24 09:38:37;;;;;;;1.95;1.75;;;21.10;62.30;;;;;;5077420;28;20200;-85
2023/07/24 09:41:03;;;;;;;2.10;1.90;;;21.10;61.90;;;;;;5095409;28;20180;-84
2023/07/24 09:43:29;;;;;;;2.15;1.95;;;21.10;61.70;;;;;;5078111;28;20157;-86
2023/07/24 09:45:56;;;;;;;2.53;2.22;;;21.10;61.90;;;;;;5077201;28;20157;-86
2023/07/24 09:48:23;;;;;;;2.38;1.90;;;21.10;62.10;;;;;;5084050;28;20163;-85
2023/07/24 09:50:53;;;;;;;2.38;2.17;;;21.20;62.10;;;;;;5115293;28;20209;-86
2023/07/24 09:53:31;;;;;;;2.22;2.00;;;21.10;62.10;;;;;;5096712;28;20226;-86
2023/07/24 09:56:02;;;;;;;2.15;1.92;;;21.10;62.00;;;;;;5113936;28;20152;-82
2023/07/24 09:58:28;;;;;;;2.40;2.17;;;21.10;62.00;;;;;;5114903;28;20245;-86
2023/07/24 10:00:53;;;;;;;2.00;1.80;;;21.10;61.90;;;;;;5115120;28;20176;-83
2023/07/24 10:03:20;;;;;;;1.92;1.80;;;21.10;61.90;;;;;;5079928;28;20648;-85
2023/07/24 10:05:46;;;;;;;1.85;1.70;;;21.10;61.70;;;;;;5096893;28;20156;-85
2023/07/24 10:08:12;;;;;;;2.30;2.03;;;21.10;61.50;;;;;;5097860;28;20159;-85
2023/07/24 10:10:39;;;;;;;2.45;2.20;;;21.10;61.50;;;;;;5098418;28;20526;-84
2023/07/24 10:13:05;;;;;;;2.28;2.08;;;21.10;61.60;;;;;;5116127;28;20160;-85
2023/07/24 10:15:31;;;;;;;2.20;2.00;;;21.10;62.50;;;;;;5116690;28;20478;-85
2023/07/24 10:18:06;;;;;;;2.13;1.92;;;21.10;61.10;;;;;;5114762;28;20718;-84
2023/07/24 10:20:36;;;;;;;2.08;1.88;;;21.20;60.80;;;;;;5114806;28;20152;-84
2023/07/24 10:23:03;;;;;;;2.10;1.90;;;21.20;60.50;;;;;;5096483;28;20239;-86
2023/07/24 10:25:31;;;;;;;2.03;1.83;;;21.20;61.50;;;;;;5113930;28;20156;-85
2023/07/24 10:28:07;;;;;;;2.13;1.92;;;21.20;60.80;;;;;;5096902;28;20200;-83
2023/07/24 10:30:35;;;;;;;2.13;1.90;;;21.10;60.90;;;;;;5116006;28;20164;-83
2023/07/24 10:33:14;;;;;;;2.20;2.00;;;21.20;60.70;;;;;;5114836;28;20249;-86
2023/07/24 10:35:43;;;;;;;2.25;2.03;;;21.20;60.60;;;;;;5116019;28;20233;-88
2023/07/24 10:38:10;;;;;;;1.90;1.80;;;21.20;60.20;;;;;;5116328;28;20225;-84
2023/07/24 10:40:36;;;;;;;2.05;1.80;;;21.20;60.20;;;;;;5114908;28;20174;-87
2023/07/24 10:43:07;;;;;;;2.03;1.83;;;21.20;60.20;;;;;;5114945;28;20152;-85
2023/07/24 10:45:52;;;;;;;2.13;1.92;;;21.20;60.20;;;;;;5098333;28;20144;-85
2023/07/24 10:48:18;;;;;;;2.20;2.00;;;21.10;60.10;;;;;;5096412;28;20199;-85
2023/07/24 10:50:45;;;;;;;2.10;1.90;;;21.10;59.90;;;;;;5096396;28;20225;-86
2023/07/24 10:53:12;;;;;;;2.15;1.95;;;21.20;59.90;;;;;;5112959;28;20211;-87
2023/07/24 10:55:38;;;;;;;2.15;1.83;;;21.20;59.90;;;;;;5102796;28;20510;-83
2023/07/24 10:58:04;;;;;;;1.98;1.80;;;21.20;59.80;;;;;;5095712;28;20198;-87
2023/07/24 11:00:29;;;;;;;2.28;2.00;;;21.10;59.60;;;;;;5114330;28;20176;-84
2023/07/24 11:02:55;;;;;;;2.40;1.98;;;21.20;59.80;;;;;;5114035;28;20235;-86
2023/07/24 11:05:22;;;;;;;1.70;1.60;;;21.20;59.50;;;;;;5114403;28;20144;-85
2023/07/24 11:07:48;;;;;;;2.00;1.80;;;21.20;59.40;;;;;;5095937;28;20255;-84
2023/07/24 11:10:17;;;;;;;2.35;1.92;;;21.20;59.40;;;;;;5112851;28;20205;-85
2023/07/24 11:12:44;;;;;;;1.75;1.60;;;21.20;59.40;;;;;;5112814;28;20254;-84
2023/07/24 11:15:10;;;;;;;1.75;1.65;;;21.20;60.00;;;;;;5096076;28;20167;-87
2023/07/24 11:17:37;;;;;;;2.58;1.88;;;21.30;59.20;;;;;;5112535;28;20148;-83
2023/07/24 11:20:13;;;;;;;2.17;1.80;;;21.30;59.20;;;;;;5112891;28;20156;-86
2023/07/24 11:22:39;;;;;;;2.30;1.80;;;21.30;58.90;;;;;;5113157;28;20155;-87
2023/07/24 11:25:06;;;;;;;2.15;1.95;;;21.30;58.80;;;;;;5112964;28;20160;-87
2023/07/24 11:27:32;;;;;;;2.38;2.10;;;21.30;58.90;;;;;;5113262;28;20221;-86
2023/07/24 11:30:00;;;;;;;2.00;1.80;;;21.20;58.90;;;;;;5112591;28;20526;-88
2023/07/24 11:32:28;;;;;;;1.95;1.77;;;21.20;58.70;;;;;;5077868;28;20777;-86
2023/07/24 11:34:53;;;;;;;2.13;1.90;;;21.30;58.70;;;;;;5076782;28;20180;-85
2023/07/24 11:37:19;;;;;;;2.00;1.80;;;21.30;58.70;;;;;;5095692;28;20160;-85
2023/07/24 11:40:08;;;;;;;2.60;2.10;;;21.30;58.70;;;;;;5111016;28;20241;-85
2023/07/24 11:42:36;;;;;;;2.13;1.90;;;21.20;58.50;;;;;;5128247;28;20257;-85
2023/07/24 11:45:02;;;;;;;1.90;1.70;;;21.20;58.60;;;;;;5113116;28;20152;-84
2023/07/24 11:47:29;;;;;;;2.25;1.85;;;21.30;58.40;;;;;;5095964;28;20163;-84
2023/07/24 11:49:58;;;;;;;1.77;1.63;;;21.30;58.60;;;;;;5113593;28;20152;-83
2023/07/24 11:52:23;;;;;;;2.70;1.88;;;21.30;58.50;;;;;;5136146;27;20635;-87
2023/07/24 11:55:03;;;;;;;3.10;1.90;;;21.30;58.60;;;;;;5136722;27;20289;-86
2023/07/24 11:57:28;;;;;;;3.10;1.80;;;21.30;58.60;;;;;;5120401;27;20152;-86
2023/07/24 11:59:57;;;;;;;1.98;1.80;;;21.30;58.70;;;;;;5136423;27;20247;-84
2023/07/24 12:02:25;;;;;;;2.08;1.83;;;21.30;58.70;;;;;;5118911;27;20159;-87
2023/07/24 12:04:58;;;;;;;2.22;2.03;;;21.30;58.70;;;;;;5135856;27;20147;-86
2023/07/24 12:07:35;;;;;;;1.80;1.70;;;21.30;58.70;;;;;;5119343;27;20155;-85
2023/07/24 12:10:02;;;;;;;1.77;1.60;;;21.20;58.50;;;;;;5136547;27;20193;-84
2023/07/24 12:12:43;;;;;;;2.00;1.80;;;21.20;58.40;;;;;;5119381;27;20244;-83
2023/07/24 12:15:09;;;;;;;1.90;1.65;;;21.20;58.30;;;;;;5119112;27;20666;-87
2023/07/24 12:17:35;;;;;;;1.77;1.67;;;21.20;58.30;;;;;;5137693;27;20547;-85
2023/07/24 12:20:04;;;;;;;1.90;1.80;;;21.30;58.30;;;;;;5137933;27;20190;-86
2023/07/24 12:22:30;;;;;;;1.92;1.75;;;21.30;58.20;;;;;;5119931;27;20159;-84
2023/07/24 12:24:56;;;;;;;1.98;1.77;;;21.30;58.30;;;;;;5136873;27;20151;-87
2023/07/24 12:27:22;;;;;;;1.50;1.30;;;21.30;58.30;;;;;;5119031;27;20167;-87
2023/07/24 12:29:48;;;;;;;1.50;1.40;;;21.30;58.40;;;;;;5136239;27;20242;-86
2023/07/24 12:32:14;;;;;;;1.73;1.55;;;21.40;58.40;;;;;;5136133;27;20190;-85
2023/07/24 12:34:40;;;;;;;1.60;1.50;;;21.30;58.30;;;;;;5136002;27;20252;-87
2023/07/24 12:37:06;;;;;;;1.73;1.60;;;21.40;58.50;;;;;;5137545;27;20159;-86
2023/07/24 12:39:32;;;;;;;1.50;1.40;;;21.40;58.40;;;;;;5137339;27;20186;-86
2023/07/24 12:41:58;;;;;;;1.65;1.55;;;21.40;58.70;;;;;;5137682;27;20159;-87
2023/07/24 12:44:26;;;;;;;1.90;1.70;;;21.50;58.50;;;;;;5121354;27;20292;-86
2023/07/24 12:46:51;;;;;;;1.90;1.70;;;21.40;58.60;;;;;;5113586;28;20203;-86